Strona główna
METAR-TAF:

METAR-TAF

Lotnisko :

Port lotniczy Donegal

Donegal, Irlandia

Szerokość geograficzna: 55-02-39N, Długość geograficzna: 8-20-28W, wysokość: 9 m

Aktualna obserwacja pogody

Raport powstał 8 godziny i 43 minut temu, godzina 20:00 UTC
Wiatr 11 kt od południe
Temperatura 6°C
Wilgotność 87%
Ciśnienie 1003 hPa
Widzialność 10 km lub więcej
Przerywane chmury na wysokości 2900 ft

METAR: EIDL 242000Z 18011KT 9999 BKN029 06/04 Q1003

czas: 04:43 (04:43 UTC)

Prognoza

Raport powstał 11 godziny i 43 minut temu, godzina 17:00 UTC
Prognoza ważna od 24 godzina 18 UTC do 25 godzina 03 UTC
Wiatr 7 kt od południe
Widzialność 10 km lub więcej
Mało chmury na wysokości 1200 ft
Przerywane chmury na wysokości 2000 ft
Prawdopodobieństwo 30% :
Przejściowo
od 24 godzina 21 UTC do 25 godzina 03 UTC
Rozproszone chmury na wysokości 1800 ft, Cumulonimbus.
przelotny opad deszczu

TAF: EIDL 241700Z 2418/2503 19007KT 9999 FEW012 BKN020 PROB30 TEMPO 2421/2503 SHRA SCT018CB

Obserwacja i prognoza pogody dla ponad 4000 lotnisk (raport METAR i TAF).

Dostępne stacje oznaczono żółtymi i czerwonymi punktami na mapie.

Najedź kursorem aby zobaczyć nazwę stacji.

Kliknij aby zobaczyć obserwacje i prognozy pogody.

Aby zmienić mapę: kliknij na zielony przycisk z czarnym krzyżykiem, aby powiększyć; na zielony przycisk z myślnikiem, aby pomniejszyć; na zielone strzałki, aby przejść do map sąsiednich.


METAR-TAF: